Hollis, North Carolina
Current Conditions -  °F | °C
As of 5:35 AM on Sunday 21 Dec 2014 (Local Time) from KFQD Reporting Station
Haze Haze  
Wind Chill: 40°   Ceiling: 800
Heat Index: 40°   Visibility: 1.7mi
Dew Point: 40°   Wind: 0mph
Humidity: 99%   Direction: NA
Pressure: 30.23"   Gusts: NA
Location:  35.3839°N, 81.7531°W
Report Text: KFQD 211035Z AUTO 00000KT 1 3/4SM BR SCT003 OVC008 05/04 A3023 RMK AO2 T00450043
Loading
Personal Weather Stations






























Interactive Weather Map New forecast layout! Learn more

10-Day Weather Forecast

Advertisements
Track Severe Weather on mobile